sensor_id;sensor_type;location;lat;lon;timestamp;temperature;humidity
51765;DHT22;37835;53.256;6.456;2023-04-01T00:01:38;9.90;99.90
51765;DHT22;37835;53.256;6.456;2023-04-01T00:04:03;9.90;99.90
51765;DHT22;37835;53.256;6.456;2023-04-01T00:06:29;9.90;99.90
51765;DHT22;37835;53.256;6.456;2023-04-01T00:08:55;9.90;99.90
51765;DHT22;37835;53.256;6.456;2023-04-01T00:11:20;9.90;99.90
51765;DHT22;37835;53.256;6.456;2023-04-01T00:13:47;9.90;99.90
51765;DHT22;37835;53.256;6.456;2023-04-01T00:16:13;9.90;99.90
51765;DHT22;37835;53.256;6.456;2023-04-01T00:18:39;9.90;99.90
51765;DHT22;37835;53.256;6.456;2023-04-01T00:21:05;9.90;99.90
51765;DHT22;37835;53.256;6.456;2023-04-01T00:23:30;9.90;99.90
51765;DHT22;37835;53.256;6.456;2023-04-01T00:25:58;9.90;99.90
51765;DHT22;37835;53.256;6.456;2023-04-01T00:28:24;9.90;99.90
51765;DHT22;37835;53.256;6.456;2023-04-01T00:30:49;10.00;99.90
51765;DHT22;37835;53.256;6.456;2023-04-01T00:33:15;9.90;99.90
51765;DHT22;37835;53.256;6.456;2023-04-01T00:35:41;9.90;99.90
51765;DHT22;37835;53.256;6.456;2023-04-01T00:38:07;9.90;99.90
51765;DHT22;37835;53.256;6.456;2023-04-01T00:40:44;9.90;99.90
51765;DHT22;37835;53.256;6.456;2023-04-01T00:43:19;9.90;99.90
51765;DHT22;37835;53.256;6.456;2023-04-01T00:45:47;9.90;99.90
51765;DHT22;37835;53.256;6.456;2023-04-01T00:48:17;9.90;99.90
51765;DHT22;37835;53.256;6.456;2023-04-01T00:51:02;9.90;99.90
51765;DHT22;37835;53.256;6.456;2023-04-01T00:53:32;9.90;99.90
51765;DHT22;37835;53.256;6.456;2023-04-01T00:56:27;9.90;99.90
51765;DHT22;37835;53.256;6.456;2023-04-01T00:58:59;9.90;99.90
51765;DHT22;37835;53.256;6.456;2023-04-01T01:01:27;9.90;99.90
51765;DHT22;37835;53.256;6.456;2023-04-01T01:03:53;9.90;99.90
51765;DHT22;37835;53.256;6.456;2023-04-01T01:15:02;9.90;99.90
51765;DHT22;37835;53.256;6.456;2023-04-01T01:31:23;9.90;99.90
51765;DHT22;37835;53.256;6.456;2023-04-01T01:36:42;9.90;99.90
51765;DHT22;37835;53.256;6.456;2023-04-01T01:39:12;9.90;99.90
51765;DHT22;37835;53.256;6.456;2023-04-01T01:41:39;9.90;99.90
51765;DHT22;37835;53.256;6.456;2023-04-01T01:44:08;9.90;99.90
51765;DHT22;37835;53.256;6.456;2023-04-01T01:46:35;9.90;99.90
51765;DHT22;37835;53.256;6.456;2023-04-01T01:49:03;9.90;99.90
51765;DHT22;37835;53.256;6.456;2023-04-01T01:51:29;9.90;99.90
51765;DHT22;37835;53.256;6.456;2023-04-01T01:53:55;9.90;99.90
51765;DHT22;37835;53.256;6.456;2023-04-01T01:56:23;9.90;99.90
51765;DHT22;37835;53.256;6.456;2023-04-01T01:58:54;9.90;99.90
51765;DHT22;37835;53.256;6.456;2023-04-01T02:01:23;9.90;99.90
51765;DHT22;37835;53.256;6.456;2023-04-01T02:03:51;9.90;99.90
51765;DHT22;37835;53.256;6.456;2023-04-01T02:06:19;9.80;99.90
51765;DHT22;37835;53.256;6.456;2023-04-01T02:08:56;9.80;99.90
51765;DHT22;37835;53.256;6.456;2023-04-01T02:11:43;9.80;99.90
51765;DHT22;37835;53.256;6.456;2023-04-01T02:14:15;9.90;99.90
51765;DHT22;37835;53.256;6.456;2023-04-01T02:19:33;9.80;99.90
51765;DHT22;37835;53.256;6.456;2023-04-01T02:22:03;10.50;99.90
51765;DHT22;37835;53.256;6.456;2023-04-01T02:24:32;9.80;99.90
51765;DHT22;37835;53.256;6.456;2023-04-01T02:27:00;9.80;99.90
51765;DHT22;37835;53.256;6.456;2023-04-01T02:29:26;9.80;99.90
51765;DHT22;37835;53.256;6.456;2023-04-01T02:31:53;9.80;99.90
51765;DHT22;37835;53.256;6.456;2023-04-01T02:34:21;9.80;99.90
51765;DHT22;37835;53.256;6.456;2023-04-01T02:36:49;9.80;99.90
51765;DHT22;37835;53.256;6.456;2023-04-01T02:39:16;9.80;99.90
51765;DHT22;37835;53.256;6.456;2023-04-01T02:41:43;9.80;99.90
51765;DHT22;37835;53.256;6.456;2023-04-01T02:44:11;9.80;99.90
51765;DHT22;37835;53.256;6.456;2023-04-01T02:46:36;9.80;99.90
51765;DHT22;37835;53.256;6.456;2023-04-01T02:49:02;9.80;99.90
51765;DHT22;37835;53.256;6.456;2023-04-01T02:51:28;9.80;99.90
51765;DHT22;37835;53.256;6.456;2023-04-01T02:53:54;9.80;99.90
51765;DHT22;37835;53.256;6.456;2023-04-01T02:56:20;9.80;99.90
51765;DHT22;37835;53.256;6.456;2023-04-01T02:58:47;9.80;99.90
51765;DHT22;37835;53.256;6.456;2023-04-01T03:01:12;9.80;99.90
51765;DHT22;37835;53.256;6.456;2023-04-01T03:03:38;9.80;99.90
51765;DHT22;37835;53.256;6.456;2023-04-01T03:06:09;9.80;99.90
51765;DHT22;37835;53.256;6.456;2023-04-01T03:08:35;9.80;99.90
51765;DHT22;37835;53.256;6.456;2023-04-01T03:11:01;9.80;99.90
51765;DHT22;37835;53.256;6.456;2023-04-01T03:13:27;9.80;99.90
51765;DHT22;37835;53.256;6.456;2023-04-01T03:15:52;9.80;99.90
51765;DHT22;37835;53.256;6.456;2023-04-01T03:18:18;9.80;99.90
51765;DHT22;37835;53.256;6.456;2023-04-01T03:20:44;9.00;99.90
51765;DHT22;37835;53.256;6.456;2023-04-01T03:23:10;9.80;99.90
51765;DHT22;37835;53.256;6.456;2023-04-01T03:25:36;9.70;99.90
51765;DHT22;37835;53.256;6.456;2023-04-01T03:28:01;10.70;99.90
51765;DHT22;37835;53.256;6.456;2023-04-01T03:30:27;9.70;99.90
51765;DHT22;37835;53.256;6.456;2023-04-01T03:32:55;9.70;99.90
51765;DHT22;37835;53.256;6.456;2023-04-01T03:35:20;9.70;99.90
51765;DHT22;37835;53.256;6.456;2023-04-01T03:37:46;9.70;99.90
51765;DHT22;37835;53.256;6.456;2023-04-01T03:40:12;9.70;99.90
51765;DHT22;37835;53.256;6.456;2023-04-01T03:42:37;9.70;99.90
51765;DHT22;37835;53.256;6.456;2023-04-01T03:45:04;9.70;99.90
51765;DHT22;37835;53.256;6.456;2023-04-01T03:47:30;9.70;99.90
51765;DHT22;37835;53.256;6.456;2023-04-01T03:49:56;9.70;99.90
51765;DHT22;37835;53.256;6.456;2023-04-01T03:52:21;9.70;99.90
51765;DHT22;37835;53.256;6.456;2023-04-01T03:54:47;9.70;99.90
51765;DHT22;37835;53.256;6.456;2023-04-01T03:57:12;9.70;99.90
51765;DHT22;37835;53.256;6.456;2023-04-01T03:59:38;9.70;99.90
51765;DHT22;37835;53.256;6.456;2023-04-01T04:02:04;9.70;99.90
51765;DHT22;37835;53.256;6.456;2023-04-01T04:04:30;9.60;99.90
51765;DHT22;37835;53.256;6.456;2023-04-01T04:06:56;9.60;99.90
51765;DHT22;37835;53.256;6.456;2023-04-01T04:09:22;9.60;99.90
51765;DHT22;37835;53.256;6.456;2023-04-01T04:11:48;9.60;99.90
51765;DHT22;37835;53.256;6.456;2023-04-01T04:14:14;9.60;99.90
51765;DHT22;37835;53.256;6.456;2023-04-01T04:16:39;9.60;99.90
51765;DHT22;37835;53.256;6.456;2023-04-01T04:19:05;9.60;99.90
51765;DHT22;37835;53.256;6.456;2023-04-01T04:21:31;9.40;99.90
51765;DHT22;37835;53.256;6.456;2023-04-01T04:23:58;9.60;99.90
51765;DHT22;37835;53.256;6.456;2023-04-01T04:26:24;9.60;99.90
51765;DHT22;37835;53.256;6.456;2023-04-01T04:28:49;9.60;99.90
51765;DHT22;37835;53.256;6.456;2023-04-01T04:31:22;9.60;99.90
51765;DHT22;37835;53.256;6.456;2023-04-01T04:33:48;9.60;99.90
51765;DHT22;37835;53.256;6.456;2023-04-01T04:36:14;9.60;99.90
51765;DHT22;37835;53.256;6.456;2023-04-01T04:38:40;9.60;99.90
51765;DHT22;37835;53.256;6.456;2023-04-01T04:41:13;9.60;99.90
51765;DHT22;37835;53.256;6.456;2023-04-01T04:43:40;9.60;99.90
51765;DHT22;37835;53.256;6.456;2023-04-01T04:46:10;9.60;99.90
51765;DHT22;37835;53.256;6.456;2023-04-01T04:48:36;9.70;99.90
51765;DHT22;37835;53.256;6.456;2023-04-01T04:51:02;9.60;99.90
51765;DHT22;37835;53.256;6.456;2023-04-01T04:53:29;9.60;99.90
51765;DHT22;37835;53.256;6.456;2023-04-01T04:55:54;9.60;99.90
51765;DHT22;37835;53.256;6.456;2023-04-01T04:58:20;9.70;99.90
51765;DHT22;37835;53.256;6.456;2023-04-01T05:00:46;9.60;99.90
51765;DHT22;37835;53.256;6.456;2023-04-01T05:03:13;9.60;99.90
51765;DHT22;37835;53.256;6.456;2023-04-01T05:05:39;9.60;99.90
51765;DHT22;37835;53.256;6.456;2023-04-01T05:08:05;9.60;99.90
51765;DHT22;37835;53.256;6.456;2023-04-01T05:10:31;9.60;99.90
51765;DHT22;37835;53.256;6.456;2023-04-01T05:12:57;9.70;99.90
51765;DHT22;37835;53.256;6.456;2023-04-01T05:15:23;9.60;99.90
51765;DHT22;37835;53.256;6.456;2023-04-01T05:17:49;9.70;99.90
51765;DHT22;37835;53.256;6.456;2023-04-01T05:20:15;9.60;99.90
51765;DHT22;37835;53.256;6.456;2023-04-01T05:22:41;9.60;99.90
51765;DHT22;37835;53.256;6.456;2023-04-01T05:25:07;9.60;99.90
51765;DHT22;37835;53.256;6.456;2023-04-01T05:27:33;9.70;99.90
51765;DHT22;37835;53.256;6.456;2023-04-01T05:29:58;9.60;99.90
51765;DHT22;37835;53.256;6.456;2023-04-01T05:32:24;9.70;99.90
51765;DHT22;37835;53.256;6.456;2023-04-01T05:34:51;9.70;99.90
51765;DHT22;37835;53.256;6.456;2023-04-01T05:37:16;9.70;99.90
51765;DHT22;37835;53.256;6.456;2023-04-01T05:39:42;9.60;99.90
51765;DHT22;37835;53.256;6.456;2023-04-01T05:42:08;9.70;99.90
51765;DHT22;37835;53.256;6.456;2023-04-01T05:44:34;9.70;99.90
51765;DHT22;37835;53.256;6.456;2023-04-01T05:47:01;9.70;99.90
51765;DHT22;37835;53.256;6.456;2023-04-01T05:49:26;9.70;99.90
51765;DHT22;37835;53.256;6.456;2023-04-01T05:51:52;9.70;99.90
51765;DHT22;37835;53.256;6.456;2023-04-01T05:54:18;9.70;99.90
51765;DHT22;37835;53.256;6.456;2023-04-01T05:56:44;9.70;99.90
51765;DHT22;37835;53.256;6.456;2023-04-01T05:59:10;9.70;99.90
51765;DHT22;37835;53.256;6.456;2023-04-01T06:01:37;9.70;99.90
51765;DHT22;37835;53.256;6.456;2023-04-01T06:04:02;9.70;99.90
51765;DHT22;37835;53.256;6.456;2023-04-01T06:06:29;9.70;99.90
51765;DHT22;37835;53.256;6.456;2023-04-01T06:09:00;9.70;99.90
51765;DHT22;37835;53.256;6.456;2023-04-01T06:14:11;9.70;99.90
51765;DHT22;37835;53.256;6.456;2023-04-01T06:16:58;9.80;99.90
51765;DHT22;37835;53.256;6.456;2023-04-01T06:30:44;9.80;99.90
51765;DHT22;37835;53.256;6.456;2023-04-01T06:44:23;10.00;99.90
51765;DHT22;37835;53.256;6.456;2023-04-01T06:57:41;10.10;99.90
51765;DHT22;37835;53.256;6.456;2023-04-01T07:00:19;10.10;99.90
51765;DHT22;37835;53.256;6.456;2023-04-01T07:02:50;10.20;99.90
51765;DHT22;37835;53.256;6.456;2023-04-01T07:05:21;10.10;99.90
51765;DHT22;37835;53.256;6.456;2023-04-01T07:07:50;10.20;99.90
51765;DHT22;37835;53.256;6.456;2023-04-01T07:13:09;10.20;99.90
51765;DHT22;37835;53.256;6.456;2023-04-01T07:15:40;10.20;99.90
51765;DHT22;37835;53.256;6.456;2023-04-01T07:18:15;10.30;99.90
51765;DHT22;37835;53.256;6.456;2023-04-01T07:20:42;10.30;99.90
51765;DHT22;37835;53.256;6.456;2023-04-01T07:23:20;10.30;99.90
51765;DHT22;37835;53.256;6.456;2023-04-01T07:25:52;10.30;99.90
51765;DHT22;37835;53.256;6.456;2023-04-01T07:28:19;10.40;99.90
51765;DHT22;37835;53.256;6.456;2023-04-01T07:33:42;10.40;99.90
51765;DHT22;37835;53.256;6.456;2023-04-01T07:36:28;10.40;99.90
51765;DHT22;37835;53.256;6.456;2023-04-01T07:47:47;10.40;99.90
51765;DHT22;37835;53.256;6.456;2023-04-01T07:56:10;10.50;99.90
51765;DHT22;37835;53.256;6.456;2023-04-01T08:07:22;10.70;99.90
51765;DHT22;37835;53.256;6.456;2023-04-01T08:09:58;10.70;99.90
51765;DHT22;37835;53.256;6.456;2023-04-01T08:12:53;10.80;99.90
51765;DHT22;37835;53.256;6.456;2023-04-01T08:20:43;11.00;99.90
51765;DHT22;37835;53.256;6.456;2023-04-01T08:25:39;11.10;99.90
51765;DHT22;37835;53.256;6.456;2023-04-01T08:31:05;11.20;99.90
51765;DHT22;37835;53.256;6.456;2023-04-01T08:33:33;11.20;99.90
51765;DHT22;37835;53.256;6.456;2023-04-01T08:36:09;11.20;99.90
51765;DHT22;37835;53.256;6.456;2023-04-01T08:38:51;11.30;99.90
51765;DHT22;37835;53.256;6.456;2023-04-01T08:41:42;11.30;99.90
51765;DHT22;37835;53.256;6.456;2023-04-01T08:44:19;11.30;99.90
51765;DHT22;37835;53.256;6.456;2023-04-01T08:52:57;11.10;99.90
51765;DHT22;37835;53.256;6.456;2023-04-01T09:01:24;11.00;99.90
51765;DHT22;37835;53.256;6.456;2023-04-01T09:12:51;10.80;99.90
51765;DHT22;37835;53.256;6.456;2023-04-01T09:16:23;10.70;99.90
51765;DHT22;37835;53.256;6.456;2023-04-01T09:18:45;10.70;99.90
51765;DHT22;37835;53.256;6.456;2023-04-01T09:24:18;10.60;99.90
51765;DHT22;37835;53.256;6.456;2023-04-01T09:27:09;10.60;99.90
51765;DHT22;37835;53.256;6.456;2023-04-01T09:32:51;10.50;99.90
51765;DHT22;37835;53.256;6.456;2023-04-01T09:35:39;10.50;99.90
51765;DHT22;37835;53.256;6.456;2023-04-01T09:38:29;10.40;99.90
51765;DHT22;37835;53.256;6.456;2023-04-01T09:41:41;10.40;99.90
51765;DHT22;37835;53.256;6.456;2023-04-01T09:44:22;10.40;99.90
51765;DHT22;37835;53.256;6.456;2023-04-01T10:01:39;10.50;99.90
51765;DHT22;37835;53.256;6.456;2023-04-01T10:07:05;10.50;99.90
51765;DHT22;37835;53.256;6.456;2023-04-01T10:12:55;10.40;99.90
51765;DHT22;37835;53.256;6.456;2023-04-01T10:18:36;10.20;99.90
51765;DHT22;37835;53.256;6.456;2023-04-01T11:04:14;9.80;99.90
51765;DHT22;37835;53.256;6.456;2023-04-01T11:28:48;9.70;99.90
51765;DHT22;37835;53.256;6.456;2023-04-01T11:42:30;9.70;99.90
51765;DHT22;37835;53.256;6.456;2023-04-01T11:56:36;9.80;99.90
51765;DHT22;37835;53.256;6.456;2023-04-01T12:08:10;9.80;99.90
51765;DHT22;37835;53.256;6.456;2023-04-01T12:10:46;9.70;99.90
51765;DHT22;37835;53.256;6.456;2023-04-01T12:13:42;9.70;99.90
51765;DHT22;37835;53.256;6.456;2023-04-01T12:16:41;9.70;99.90
51765;DHT22;37835;53.256;6.456;2023-04-01T12:21:52;9.70;99.90
51765;DHT22;37835;53.256;6.456;2023-04-01T12:29:44;9.80;99.90
51765;DHT22;37835;53.256;6.456;2023-04-01T12:32:21;9.80;99.90
51765;DHT22;37835;53.256;6.456;2023-04-01T12:37:49;9.80;99.90
51765;DHT22;37835;53.256;6.456;2023-04-01T12:40:51;9.80;99.90
51765;DHT22;37835;53.256;6.456;2023-04-01T12:46:57;9.90;99.90
51765;DHT22;37835;53.256;6.456;2023-04-01T12:52:07;10.00;99.90
51765;DHT22;37835;53.256;6.456;2023-04-01T12:58:08;10.10;99.90
51765;DHT22;37835;53.256;6.456;2023-04-01T13:08:54;10.10;99.90
51765;DHT22;37835;53.256;6.456;2023-04-01T13:20:02;10.20;99.90
51765;DHT22;37835;53.256;6.456;2023-04-01T13:28:29;10.10;99.90
51765;DHT22;37835;53.256;6.456;2023-04-01T13:34:25;9.90;99.90
51765;DHT22;37835;53.256;6.456;2023-04-01T13:42:35;9.80;99.90
51765;DHT22;37835;53.256;6.456;2023-04-01T13:51:22;9.80;99.90
51765;DHT22;37835;53.256;6.456;2023-04-01T14:05:04;9.80;99.90
51765;DHT22;37835;53.256;6.456;2023-04-01T14:07:57;9.80;99.90
51765;DHT22;37835;53.256;6.456;2023-04-01T14:10:43;9.80;99.90
51765;DHT22;37835;53.256;6.456;2023-04-01T14:13:23;9.70;99.90
51765;DHT22;37835;53.256;6.456;2023-04-01T14:16:00;9.90;99.90
51765;DHT22;37835;53.256;6.456;2023-04-01T14:21:33;9.70;99.90
51765;DHT22;37835;53.256;6.456;2023-04-01T14:27:09;9.60;99.90
51765;DHT22;37835;53.256;6.456;2023-04-01T14:32:39;9.50;99.90
51765;DHT22;37835;53.256;6.456;2023-04-01T14:48:57;9.20;99.90
51765;DHT22;37835;53.256;6.456;2023-04-01T14:51:36;9.20;99.90
51765;DHT22;37835;53.256;6.456;2023-04-01T14:54:14;9.10;99.90
51765;DHT22;37835;53.256;6.456;2023-04-01T14:56:50;9.10;99.90
51765;DHT22;37835;53.256;6.456;2023-04-01T15:04:44;8.90;99.90
51765;DHT22;37835;53.256;6.456;2023-04-01T15:10:30;8.80;99.90
51765;DHT22;37835;53.256;6.456;2023-04-01T15:14:04;8.70;99.90
51765;DHT22;37835;53.256;6.456;2023-04-01T15:27:12;8.50;99.90
51765;DHT22;37835;53.256;6.456;2023-04-01T15:38:50;8.40;99.90
51765;DHT22;37835;53.256;6.456;2023-04-01T15:41:23;8.30;99.90
51765;DHT22;37835;53.256;6.456;2023-04-01T15:43:50;8.30;99.90
51765;DHT22;37835;53.256;6.456;2023-04-01T16:03:09;8.00;99.90
51765;DHT22;37835;53.256;6.456;2023-04-01T16:06:01;7.90;99.90
51765;DHT22;37835;53.256;6.456;2023-04-01T16:11:24;7.90;99.90
51765;DHT22;37835;53.256;6.456;2023-04-01T16:17:17;7.80;99.90
51765;DHT22;37835;53.256;6.456;2023-04-01T16:22:39;7.70;99.90
51765;DHT22;37835;53.256;6.456;2023-04-01T16:28:36;7.60;99.90
51765;DHT22;37835;53.256;6.456;2023-04-01T16:31:14;7.60;99.90
51765;DHT22;37835;53.256;6.456;2023-04-01T16:33:48;7.60;99.90
51765;DHT22;37835;53.256;6.456;2023-04-01T16:36:33;7.50;99.90
51765;DHT22;37835;53.256;6.456;2023-04-01T16:42:11;7.40;99.90
51765;DHT22;37835;53.256;6.456;2023-04-01T16:45:02;7.40;99.90
51765;DHT22;37835;53.256;6.456;2023-04-01T16:47:32;7.30;99.90
51765;DHT22;37835;53.256;6.456;2023-04-01T16:50:21;7.30;99.90
51765;DHT22;37835;53.256;6.456;2023-04-01T16:53:00;7.20;99.90
51765;DHT22;37835;53.256;6.456;2023-04-01T16:58:02;7.20;99.90
51765;DHT22;37835;53.256;6.456;2023-04-01T17:00:37;7.20;99.90
51765;DHT22;37835;53.256;6.456;2023-04-01T17:08:37;7.10;99.90
51765;DHT22;37835;53.256;6.456;2023-04-01T17:11:24;7.10;99.90
51765;DHT22;37835;53.256;6.456;2023-04-01T17:14:50;7.00;99.90
51765;DHT22;37835;53.256;6.456;2023-04-01T17:19:33;7.00;99.90
51765;DHT22;37835;53.256;6.456;2023-04-01T17:33:07;6.90;99.90
51765;DHT22;37835;53.256;6.456;2023-04-01T17:39:09;6.90;99.90
51765;DHT22;37835;53.256;6.456;2023-04-01T17:42:00;6.90;99.90
51765;DHT22;37835;53.256;6.456;2023-04-01T17:50:02;6.70;99.90
51765;DHT22;37835;53.256;6.456;2023-04-01T17:52:42;6.70;99.90
51765;DHT22;37835;53.256;6.456;2023-04-01T17:57:56;6.60;99.90
51765;DHT22;37835;53.256;6.456;2023-04-01T18:03:24;6.60;99.90
51765;DHT22;37835;53.256;6.456;2023-04-01T18:06:15;6.60;99.90
51765;DHT22;37835;53.256;6.456;2023-04-01T18:09:03;6.60;99.90
51765;DHT22;37835;53.256;6.456;2023-04-01T18:19:57;6.50;99.90
51765;DHT22;37835;53.256;6.456;2023-04-01T18:22:44;6.50;99.90
51765;DHT22;37835;53.256;6.456;2023-04-01T18:25:32;6.50;99.90
51765;DHT22;37835;53.256;6.456;2023-04-01T18:31:26;6.40;99.90
51765;DHT22;37835;53.256;6.456;2023-04-01T18:34:32;6.50;99.90
51765;DHT22;37835;53.256;6.456;2023-04-01T18:37:39;6.40;99.90
51765;DHT22;37835;53.256;6.456;2023-04-01T18:45:34;6.30;99.90
51765;DHT22;37835;53.256;6.456;2023-04-01T18:48:15;6.30;99.90
51765;DHT22;37835;53.256;6.456;2023-04-01T18:50:55;6.30;99.90
51765;DHT22;37835;53.256;6.456;2023-04-01T18:56:07;6.20;99.90
51765;DHT22;37835;53.256;6.456;2023-04-01T18:58:37;6.20;99.90
51765;DHT22;37835;53.256;6.456;2023-04-01T19:01:15;6.20;99.90
51765;DHT22;37835;53.256;6.456;2023-04-01T19:03:57;6.10;99.90
51765;DHT22;37835;53.256;6.456;2023-04-01T19:06:33;6.20;99.90
51765;DHT22;37835;53.256;6.456;2023-04-01T19:09:16;6.10;99.90
51765;DHT22;37835;53.256;6.456;2023-04-01T19:11:58;6.10;99.90
51765;DHT22;37835;53.256;6.456;2023-04-01T19:20:31;6.00;99.90
51765;DHT22;37835;53.256;6.456;2023-04-01T19:23:26;6.00;99.90
51765;DHT22;37835;53.256;6.456;2023-04-01T19:25:54;6.00;99.90
51765;DHT22;37835;53.256;6.456;2023-04-01T19:28:34;6.00;99.90
51765;DHT22;37835;53.256;6.456;2023-04-01T19:34:14;5.90;99.90
51765;DHT22;37835;53.256;6.456;2023-04-01T19:42:39;5.90;99.90
51765;DHT22;37835;53.256;6.456;2023-04-01T19:45:26;5.80;99.90
51765;DHT22;37835;53.256;6.456;2023-04-01T19:50:44;5.90;99.90
51765;DHT22;37835;53.256;6.456;2023-04-01T19:56:43;5.70;99.90
51765;DHT22;37835;53.256;6.456;2023-04-01T20:04:43;5.70;99.90
51765;DHT22;37835;53.256;6.456;2023-04-01T20:15:36;4.80;99.90
51765;DHT22;37835;53.256;6.456;2023-04-01T20:18:12;5.60;99.90
51765;DHT22;37835;53.256;6.456;2023-04-01T20:20:41;5.60;99.90
51765;DHT22;37835;53.256;6.456;2023-04-01T20:26:35;5.60;99.90
51765;DHT22;37835;53.256;6.456;2023-04-01T20:32:18;6.00;99.90
51765;DHT22;37835;53.256;6.456;2023-04-01T20:35:11;5.60;99.90
51765;DHT22;37835;53.256;6.456;2023-04-01T20:37:44;5.50;99.90
51765;DHT22;37835;53.256;6.456;2023-04-01T20:40:28;5.50;99.90
51765;DHT22;37835;53.256;6.456;2023-04-01T20:46:01;5.50;99.90
51765;DHT22;37835;53.256;6.456;2023-04-01T20:49:02;5.50;99.90
51765;DHT22;37835;53.256;6.456;2023-04-01T20:51:31;5.40;99.90
51765;DHT22;37835;53.256;6.456;2023-04-01T20:57:03;5.40;99.90
51765;DHT22;37835;53.256;6.456;2023-04-01T20:59:44;5.90;99.90
51765;DHT22;37835;53.256;6.456;2023-04-01T21:02:52;5.40;99.90
51765;DHT22;37835;53.256;6.456;2023-04-01T21:08:35;5.40;99.90
51765;DHT22;37835;53.256;6.456;2023-04-01T21:11:18;5.40;99.90
51765;DHT22;37835;53.256;6.456;2023-04-01T21:23:11;5.40;99.90
51765;DHT22;37835;53.256;6.456;2023-04-01T21:25:35;5.30;99.90
51765;DHT22;37835;53.256;6.456;2023-04-01T21:36:42;5.30;99.90
51765;DHT22;37835;53.256;6.456;2023-04-01T21:39:27;5.30;99.90
51765;DHT22;37835;53.256;6.456;2023-04-01T21:52:52;5.20;99.90
51765;DHT22;37835;53.256;6.456;2023-04-01T22:00:48;5.10;99.90
51765;DHT22;37835;53.256;6.456;2023-04-01T22:03:31;5.10;99.90
51765;DHT22;37835;53.256;6.456;2023-04-01T22:11:34;5.10;99.90
51765;DHT22;37835;53.256;6.456;2023-04-01T22:16:53;5.00;99.90
51765;DHT22;37835;53.256;6.456;2023-04-01T22:21:59;5.00;99.90
51765;DHT22;37835;53.256;6.456;2023-04-01T22:30:01;4.90;99.90
51765;DHT22;37835;53.256;6.456;2023-04-01T22:32:31;4.90;99.90
51765;DHT22;37835;53.256;6.456;2023-04-01T22:35:33;4.90;99.90
51765;DHT22;37835;53.256;6.456;2023-04-01T22:43:37;4.70;99.90
51765;DHT22;37835;53.256;6.456;2023-04-01T22:49:17;4.60;99.90
51765;DHT22;37835;53.256;6.456;2023-04-01T22:57:14;4.50;99.90
51765;DHT22;37835;53.256;6.456;2023-04-01T22:59:53;4.50;99.90
51765;DHT22;37835;53.256;6.456;2023-04-01T23:02:24;4.40;99.90
51765;DHT22;37835;53.256;6.456;2023-04-01T23:04:55;4.40;99.90
51765;DHT22;37835;53.256;6.456;2023-04-01T23:09:56;4.30;99.90
51765;DHT22;37835;53.256;6.456;2023-04-01T23:12:24;4.30;99.90
51765;DHT22;37835;53.256;6.456;2023-04-01T23:14:52;4.30;99.90
51765;DHT22;37835;53.256;6.456;2023-04-01T23:17:42;4.20;99.90
51765;DHT22;37835;53.256;6.456;2023-04-01T23:20:18;4.20;99.90
51765;DHT22;37835;53.256;6.456;2023-04-01T23:23:20;4.10;99.90
51765;DHT22;37835;53.256;6.456;2023-04-01T23:26:07;4.10;99.90
51765;DHT22;37835;53.256;6.456;2023-04-01T23:31:30;4.00;99.90
51765;DHT22;37835;53.256;6.456;2023-04-01T23:33:58;4.00;99.90
51765;DHT22;37835;53.256;6.456;2023-04-01T23:36:26;3.90;99.90
51765;DHT22;37835;53.256;6.456;2023-04-01T23:38:52;3.90;99.90
51765;DHT22;37835;53.256;6.456;2023-04-01T23:41:25;3.90;99.90
51765;DHT22;37835;53.256;6.456;2023-04-01T23:44:12;3.80;99.90
51765;DHT22;37835;53.256;6.456;2023-04-01T23:46:40;3.80;99.90
51765;DHT22;37835;53.256;6.456;2023-04-01T23:49:22;3.70;99.90
51765;DHT22;37835;53.256;6.456;2023-04-01T23:52:04;3.70;99.90
51765;DHT22;37835;53.256;6.456;2023-04-01T23:57:13;3.50;99.90
51765;DHT22;37835;53.256;6.456;2023-04-01T23:59:39;3.40;99.90
